createdAt,value
2019-02-08T00:00:29.582Z,15.03
2019-02-08T00:02:58.091Z,14.28
2019-02-08T00:05:26.633Z,12.50
2019-02-08T00:07:55.151Z,13.68
2019-02-08T00:10:23.843Z,15.78
2019-02-08T00:12:52.334Z,14.30
2019-02-08T00:15:24.041Z,14.13
2019-02-08T00:17:52.622Z,14.07
2019-02-08T00:20:21.924Z,14.18
2019-02-08T00:22:50.516Z,14.47
2019-02-08T00:25:21.437Z,14.75
2019-02-08T00:27:50.178Z,15.15
2019-02-08T00:30:29.096Z,14.18
2019-02-08T00:32:57.652Z,14.83
2019-02-08T00:35:26.242Z,15.10
2019-02-08T00:37:54.742Z,15.18
2019-02-08T00:40:24.340Z,14.93
2019-02-08T00:42:52.897Z,16.20
2019-02-08T00:45:22.266Z,16.85
2019-02-08T00:47:50.788Z,17.40
2019-02-08T00:50:21.822Z,18.60
2019-02-08T00:52:50.330Z,19.82
2019-02-08T00:55:18.902Z,17.95
2019-02-08T00:57:47.689Z,19.42
2019-02-08T01:00:17.435Z,19.65
2019-02-08T01:02:47.634Z,20.68
2019-02-08T01:05:21.616Z,19.70
2019-02-08T01:07:51.215Z,21.23
2019-02-08T01:10:31.307Z,18.45
2019-02-08T01:13:01.089Z,19.60
2019-02-08T01:15:32.034Z,19.75
2019-02-08T01:18:01.577Z,19.07
2019-02-08T01:20:30.209Z,19.87
2019-02-08T01:22:58.716Z,20.08
2019-02-08T01:25:28.505Z,19.82
2019-02-08T01:27:56.935Z,20.45
2019-02-08T01:30:33.062Z,21.82
2019-02-08T01:33:01.649Z,23.05
2019-02-08T01:35:30.515Z,25.25
2019-02-08T01:38:00.313Z,23.55
2019-02-08T01:40:34.412Z,21.42
2019-02-08T01:43:03.105Z,24.32
2019-02-08T01:45:32.954Z,20.20
2019-02-08T01:48:02.139Z,20.70
2019-02-08T01:50:31.337Z,21.40
2019-02-08T01:53:00.117Z,19.55
2019-02-08T01:55:28.691Z,19.48
2019-02-08T01:57:57.250Z,17.25
2019-02-08T02:00:28.233Z,19.12
2019-02-08T02:02:56.890Z,19.02
2019-02-08T02:05:25.586Z,20.68
2019-02-08T02:07:54.064Z,18.80
2019-02-08T02:10:42.704Z,18.40
2019-02-08T02:13:11.373Z,19.95
2019-02-08T02:15:40.149Z,18.77
2019-02-08T02:18:09.515Z,17.98
2019-02-08T02:20:40.109Z,19.40
2019-02-08T02:23:09.566Z,20.32
2019-02-08T02:25:38.301Z,20.30
2019-02-08T02:28:07.074Z,20.30
2019-02-08T02:30:36.468Z,19.17
2019-02-08T02:33:07.969Z,19.55
2019-02-08T02:35:36.549Z,18.82
2019-02-08T02:38:06.516Z,18.73
2019-02-08T02:40:35.032Z,17.48
2019-02-08T02:43:03.799Z,18.07
2019-02-08T02:45:34.587Z,17.62
2019-02-08T02:48:03.372Z,17.52
2019-02-08T02:50:31.885Z,18.52
2019-02-08T02:53:00.397Z,18.23
2019-02-08T02:55:30.367Z,16.67
2019-02-08T02:57:58.883Z,17.23
2019-02-08T03:00:41.793Z,16.07
2019-02-08T03:03:10.766Z,15.43
2019-02-08T03:05:39.271Z,15.18
2019-02-08T03:08:10.071Z,17.20
2019-02-08T03:10:38.648Z,17.00
2019-02-08T03:13:07.438Z,16.93
2019-02-08T03:15:36.011Z,18.40
2019-02-08T03:18:05.383Z,15.90
2019-02-08T03:20:33.946Z,16.05
2019-02-08T03:23:02.470Z,18.10
2019-02-08T03:25:31.162Z,17.60
2019-02-08T03:27:59.850Z,19.48
2019-02-08T03:30:49.942Z,17.90
2019-02-08T03:33:18.453Z,17.85
2019-02-08T03:35:46.966Z,18.90
2019-02-08T03:38:15.485Z,17.55
2019-02-08T03:40:43.903Z,18.60
2019-02-08T03:43:12.422Z,20.27
2019-02-08T03:45:42.555Z,18.65
2019-02-08T03:48:11.339Z,17.82
2019-02-08T03:50:39.833Z,19.27
2019-02-08T03:53:09.016Z,18.35
2019-02-08T03:55:38.783Z,20.17
2019-02-08T03:58:07.771Z,20.27
2019-02-08T04:00:50.152Z,17.20
2019-02-08T04:03:18.738Z,18.10
2019-02-08T04:05:47.239Z,21.33
2019-02-08T04:08:15.698Z,20.30
2019-02-08T04:10:44.261Z,18.77
2019-02-08T04:13:12.786Z,19.32
2019-02-08T04:15:41.358Z,19.87
2019-02-08T04:18:09.875Z,20.02
2019-02-08T04:20:38.372Z,19.40
2019-02-08T04:23:06.896Z,20.02
2019-02-08T04:25:35.324Z,19.23
2019-02-08T04:28:03.914Z,20.12
2019-02-08T04:30:32.975Z,20.50
2019-02-08T04:33:02.655Z,18.17
2019-02-08T04:35:31.238Z,18.05
2019-02-08T04:37:59.739Z,21.50
2019-02-08T04:40:29.059Z,19.17
2019-02-08T04:42:57.551Z,20.88
2019-02-08T04:45:26.074Z,18.48
2019-02-08T04:47:54.585Z,18.67
2019-02-08T04:50:24.479Z,20.10
2019-02-08T04:52:53.346Z,17.75
2019-02-08T04:55:22.312Z,19.75
2019-02-08T04:57:50.733Z,19.30
2019-02-08T05:00:31.090Z,18.15
2019-02-08T05:02:59.652Z,17.10
2019-02-08T05:05:28.215Z,17.98
2019-02-08T05:07:57.004Z,18.40
2019-02-08T05:10:28.593Z,17.57
2019-02-08T05:12:57.147Z,15.23
2019-02-08T05:15:25.670Z,16.75
2019-02-08T05:17:54.254Z,17.05
2019-02-08T05:20:27.531Z,17.25
2019-02-08T05:22:56.110Z,17.37
2019-02-08T05:25:24.551Z,16.12
2019-02-08T05:27:53.068Z,16.60
2019-02-08T05:30:35.418Z,20.95
2019-02-08T05:33:04.876Z,19.12
2019-02-08T05:35:33.467Z,16.75
2019-02-08T05:38:01.968Z,15.40
2019-02-08T05:40:30.575Z,17.15
2019-02-08T05:42:59.159Z,17.32
2019-02-08T05:45:27.850Z,18.25
2019-02-08T05:47:56.284Z,16.97
2019-02-08T05:50:28.981Z,17.02
2019-02-08T05:52:57.657Z,17.20
2019-02-08T05:55:31.280Z,15.55
2019-02-08T05:57:59.976Z,17.27
2019-02-08T06:00:38.785Z,16.15
2019-02-08T06:03:07.468Z,16.90
2019-02-08T06:05:36.426Z,15.85
2019-02-08T06:08:06.113Z,16.12
2019-02-08T06:10:34.612Z,15.60
2019-02-08T06:13:03.304Z,16.52
2019-02-08T06:15:31.732Z,14.87
2019-02-08T06:18:00.189Z,16.57
2019-02-08T06:20:28.746Z,13.70
2019-02-08T06:22:57.320Z,14.45
2019-02-08T06:25:25.910Z,15.23
2019-02-08T06:27:54.366Z,14.28
2019-02-08T06:30:25.882Z,16.90
2019-02-08T06:32:54.639Z,14.47
2019-02-08T06:35:24.930Z,14.65
2019-02-08T06:37:53.653Z,14.15
2019-02-08T06:40:33.548Z,18.25
2019-02-08T06:43:02.128Z,16.57
2019-02-08T06:45:31.087Z,18.80
2019-02-08T06:47:59.680Z,16.42
2019-02-08T06:50:28.539Z,17.42
2019-02-08T06:52:57.030Z,18.27
2019-02-08T06:55:25.715Z,18.32
2019-02-08T06:57:56.516Z,17.80
2019-02-08T07:00:28.218Z,20.08
2019-02-08T07:03:14.132Z,17.17
2019-02-08T07:05:52.832Z,17.92
2019-02-08T07:08:23.037Z,18.37
2019-02-08T07:10:53.231Z,18.07
2019-02-08T07:13:28.717Z,16.80
2019-02-08T07:15:58.840Z,19.32
2019-02-08T07:18:37.647Z,20.52
2019-02-08T07:21:13.786Z,19.20
2019-02-08T07:23:46.409Z,23.32
2019-02-08T07:26:16.586Z,21.95
2019-02-08T07:28:46.648Z,24.30
2019-02-08T07:31:16.706Z,22.52
2019-02-08T07:33:46.853Z,21.73
2019-02-08T07:36:23.233Z,21.75
2019-02-08T07:38:53.466Z,23.10
2019-02-08T07:41:28.579Z,20.88
2019-02-08T07:44:16.032Z,23.62
2019-02-08T07:46:51.371Z,24.43
2019-02-08T07:49:24.454Z,22.98
2019-02-08T07:52:12.503Z,19.85
2019-02-08T07:54:48.385Z,19.45
2019-02-08T07:57:27.654Z,18.30
2019-02-08T08:00:00.292Z,20.48
2019-02-08T08:02:32.891Z,18.07
2019-02-08T08:05:09.137Z,16.70
2019-02-08T08:07:39.308Z,18.85
2019-02-08T08:10:12.435Z,17.90
2019-02-08T08:12:45.580Z,17.32
2019-02-08T08:15:24.138Z,17.67
2019-02-08T08:17:57.071Z,18.20
2019-02-08T08:20:36.193Z,17.17
2019-02-08T08:23:18.750Z,17.85
2019-02-08T08:26:00.678Z,17.82
2019-02-08T08:28:36.899Z,19.00
2019-02-08T08:31:09.504Z,17.27
2019-02-08T08:33:41.031Z,18.00
2019-02-08T08:36:27.179Z,18.27
2019-02-08T08:39:26.986Z,21.00
2019-02-08T08:42:18.834Z,19.85
2019-02-08T08:45:08.103Z,25.40
2019-02-08T08:48:08.202Z,24.87
2019-02-08T08:50:51.435Z,28.12
2019-02-08T08:53:22.953Z,27.35
2019-02-08T08:56:06.307Z,23.62
2019-02-08T08:58:43.396Z,24.57
2019-02-08T09:01:42.009Z,22.85
2019-02-08T09:04:38.954Z,21.17
2019-02-08T09:07:22.514Z,19.52
2019-02-08T09:10:06.114Z,16.62
2019-02-08T09:12:56.697Z,17.25
2019-02-08T09:15:56.719Z,16.07
2019-02-08T09:18:48.750Z,15.80
2019-02-08T09:21:31.970Z,15.18
2019-02-08T09:24:25.427Z,14.70
2019-02-08T09:27:29.578Z,15.23
2019-02-08T09:30:15.946Z,14.13
2019-02-08T09:33:11.501Z,12.75
2019-02-08T09:36:01.048Z,14.20
2019-02-08T09:38:47.492Z,12.80
2019-02-08T09:41:19.023Z,12.53
2019-02-08T09:44:14.158Z,14.38
2019-02-08T09:47:03.610Z,13.93
2019-02-08T09:50:03.580Z,12.30
2019-02-08T09:52:55.859Z,11.25
2019-02-08T09:55:45.078Z,9.05
2019-02-08T09:58:49.466Z,8.38
2019-02-08T10:01:49.258Z,8.85
2019-02-08T10:04:53.623Z,6.78
2019-02-08T10:07:41.740Z,7.65
2019-02-08T10:10:22.027Z,6.53
2019-02-08T10:13:11.586Z,7.22
2019-02-08T10:15:51.170Z,7.20
2019-02-08T10:18:43.721Z,6.15
2019-02-08T10:21:49.767Z,5.87
2019-02-08T10:24:26.971Z,6.45
2019-02-08T10:27:17.192Z,6.22
2019-02-08T10:29:57.427Z,6.28
2019-02-08T10:32:59.111Z,5.60
2019-02-08T10:35:52.943Z,4.90
2019-02-08T10:38:39.206Z,4.90
2019-02-08T10:41:30.380Z,5.97
2019-02-08T10:44:13.502Z,6.00
2019-02-08T10:47:02.647Z,5.40
2019-02-08T10:49:53.283Z,5.63
2019-02-08T10:52:41.135Z,5.70
2019-02-08T10:55:33.034Z,6.07
2019-02-08T10:58:37.570Z,5.42
2019-02-08T11:01:28.271Z,5.30
2019-02-08T11:04:19.264Z,4.97
2019-02-08T11:06:56.612Z,4.33
2019-02-08T11:09:40.143Z,5.60
2019-02-08T11:12:35.422Z,5.33
2019-02-08T11:15:35.556Z,4.55
2019-02-08T11:18:18.935Z,5.07
2019-02-08T11:20:47.381Z,4.77
2019-02-08T11:23:15.791Z,4.57
2019-02-08T11:25:44.260Z,4.47
2019-02-08T11:28:12.680Z,4.70
2019-02-08T11:30:41.131Z,4.00
2019-02-08T11:33:09.652Z,4.37
2019-02-08T11:35:38.098Z,4.13
2019-02-08T11:38:06.855Z,4.90
2019-02-08T11:40:35.372Z,4.40
2019-02-08T11:43:04.060Z,4.07
2019-02-08T11:45:32.630Z,4.27
2019-02-08T11:48:01.123Z,3.60
2019-02-08T11:50:29.578Z,3.80
2019-02-08T11:52:57.993Z,3.37
2019-02-08T11:55:26.408Z,4.20
2019-02-08T11:57:54.844Z,3.20
2019-02-08T12:00:32.898Z,3.60
2019-02-08T12:03:01.354Z,4.00
2019-02-08T12:05:29.762Z,4.00
2019-02-08T12:07:58.349Z,3.00
2019-02-08T12:10:26.763Z,4.00
2019-02-08T12:12:55.203Z,4.03
2019-02-08T12:15:24.054Z,3.40
2019-02-08T12:17:52.495Z,3.80
2019-02-08T12:20:20.973Z,4.47
2019-02-08T12:22:49.470Z,3.83
2019-02-08T12:25:18.048Z,3.60
2019-02-08T12:27:46.554Z,3.80
2019-02-08T12:30:26.670Z,4.30
2019-02-08T12:32:55.126Z,3.80
2019-02-08T12:35:23.786Z,3.80
2019-02-08T12:37:52.226Z,3.97
2019-02-08T12:40:20.647Z,3.67
2019-02-08T12:42:49.082Z,3.30
2019-02-08T12:45:19.567Z,3.80
2019-02-08T12:47:48.204Z,3.53
2019-02-08T12:50:18.282Z,3.30
2019-02-08T12:52:46.859Z,3.80
2019-02-08T12:55:17.128Z,3.60
2019-02-08T12:57:45.679Z,3.27
2019-02-08T13:00:22.879Z,3.15
2019-02-08T13:02:51.370Z,3.95
2019-02-08T13:05:20.261Z,3.67
2019-02-08T13:07:49.219Z,3.57
2019-02-08T13:10:20.741Z,4.07
2019-02-08T13:12:49.243Z,4.00
2019-02-08T13:15:17.914Z,3.17
2019-02-08T13:17:46.477Z,3.80
2019-02-08T13:20:19.883Z,3.80
2019-02-08T13:22:49.198Z,3.50
2019-02-08T13:25:18.527Z,3.53
2019-02-08T13:27:48.372Z,2.70
2019-02-08T13:30:28.291Z,3.43
2019-02-08T13:32:56.795Z,2.70
2019-02-08T13:35:25.774Z,3.37
2019-02-08T13:37:54.212Z,2.77
2019-02-08T13:40:25.038Z,2.90
2019-02-08T13:42:53.514Z,3.90
2019-02-08T13:45:22.178Z,3.17
2019-02-08T13:47:50.970Z,3.57
2019-02-08T13:50:27.982Z,3.57
2019-02-08T13:52:56.475Z,4.20
2019-02-08T13:55:25.658Z,3.33
2019-02-08T13:57:54.153Z,3.33
2019-02-08T14:00:33.735Z,3.40
2019-02-08T14:03:02.229Z,4.03
2019-02-08T14:05:31.095Z,3.50
2019-02-08T14:07:59.535Z,4.05
2019-02-08T14:10:27.945Z,5.62
2019-02-08T14:12:56.395Z,4.30
2019-02-08T14:15:26.756Z,4.60
2019-02-08T14:17:55.222Z,4.25
2019-02-08T14:20:25.763Z,4.40
2019-02-08T14:22:54.542Z,3.30
2019-02-08T14:25:23.315Z,3.45
2019-02-08T14:27:51.900Z,3.17
2019-02-08T14:30:35.183Z,4.12
2019-02-08T14:33:03.696Z,3.60
2019-02-08T14:35:32.335Z,4.72
2019-02-08T14:38:02.642Z,3.95
2019-02-08T14:40:31.378Z,4.30
2019-02-08T14:42:59.823Z,3.55
2019-02-08T14:45:28.668Z,3.60
2019-02-08T14:47:57.209Z,4.85
2019-02-08T14:50:27.390Z,4.08
2019-02-08T14:52:56.563Z,3.25
2019-02-08T14:55:25.149Z,4.42
2019-02-08T14:57:56.218Z,3.47
2019-02-08T15:00:25.028Z,3.50
2019-02-08T15:02:53.458Z,4.65
2019-02-08T15:05:23.050Z,5.53
2019-02-08T15:07:51.606Z,6.80
2019-02-08T15:10:22.862Z,6.22
2019-02-08T15:12:51.422Z,5.87
2019-02-08T15:15:20.002Z,5.22
2019-02-08T15:17:48.508Z,7.72
2019-02-08T15:20:22.615Z,4.35
2019-02-08T15:22:51.174Z,4.28
2019-02-08T15:25:19.874Z,4.75
2019-02-08T15:27:48.359Z,3.35
2019-02-08T15:30:19.900Z,3.20
2019-02-08T15:32:48.340Z,3.22
2019-02-08T15:35:19.715Z,3.30
2019-02-08T15:37:48.275Z,3.35
2019-02-08T15:40:22.354Z,2.40
2019-02-08T15:42:50.785Z,3.45
2019-02-08T15:45:21.329Z,3.70
2019-02-08T15:47:50.339Z,4.65
2019-02-08T15:50:18.994Z,3.62
2019-02-08T15:52:47.482Z,4.37
2019-02-08T15:55:18.942Z,3.87
2019-02-08T15:57:47.438Z,3.40
2019-02-08T16:00:19.087Z,2.90
2019-02-08T16:02:47.651Z,3.15
2019-02-08T16:05:18.702Z,3.22
2019-02-08T16:07:47.310Z,2.33
2019-02-08T16:10:17.074Z,2.80
2019-02-08T16:12:45.871Z,3.22
2019-02-08T16:15:25.738Z,3.40
2019-02-08T16:17:54.514Z,4.12
2019-02-08T16:20:25.489Z,3.42
2019-02-08T16:22:54.424Z,4.33
2019-02-08T16:25:25.792Z,3.65
2019-02-08T16:27:54.254Z,3.15
2019-02-08T16:30:25.742Z,3.55
2019-02-08T16:32:54.315Z,3.20
2019-02-08T16:35:23.698Z,2.80
2019-02-08T16:37:52.574Z,3.05
2019-02-08T16:40:25.775Z,2.45
2019-02-08T16:42:54.453Z,2.90
2019-02-08T16:45:34.599Z,3.02
2019-02-08T16:48:04.956Z,3.02
2019-02-08T16:50:34.518Z,3.05
2019-02-08T16:53:03.294Z,3.22
2019-02-08T16:55:31.779Z,3.40
2019-02-08T16:58:00.358Z,2.98
2019-02-08T17:00:30.926Z,3.60
2019-02-08T17:03:01.703Z,4.78
2019-02-08T17:05:30.845Z,5.00
2019-02-08T17:07:59.633Z,3.55
2019-02-08T17:10:28.178Z,3.75
2019-02-08T17:12:56.708Z,3.17
2019-02-08T17:15:31.867Z,3.50
2019-02-08T17:18:00.556Z,3.20
2019-02-08T17:20:35.095Z,3.42
2019-02-08T17:23:03.605Z,3.85
2019-02-08T17:25:32.079Z,4.08
2019-02-08T17:28:01.290Z,3.70
2019-02-08T17:30:29.968Z,4.05
2019-02-08T17:32:58.481Z,4.22
2019-02-08T17:35:28.498Z,4.15
2019-02-08T17:37:57.226Z,4.33
2019-02-08T17:40:40.431Z,3.80
2019-02-08T17:43:09.006Z,3.47
2019-02-08T17:45:37.443Z,3.65
2019-02-08T17:48:07.996Z,4.78
2019-02-08T17:50:36.583Z,3.65
2019-02-08T17:53:05.180Z,3.72
2019-02-08T17:55:34.092Z,3.95
2019-02-08T17:58:03.912Z,3.75
2019-02-08T18:00:47.343Z,4.90
2019-02-08T18:03:16.011Z,5.20
2019-02-08T18:05:44.524Z,4.15
2019-02-08T18:08:13.442Z,6.62
2019-02-08T18:10:41.982Z,6.50
2019-02-08T18:13:10.548Z,6.80
2019-02-08T18:15:39.015Z,5.87
2019-02-08T18:18:09.758Z,5.45
2019-02-08T18:20:49.971Z,7.00
2019-02-08T18:23:18.530Z,8.13
2019-02-08T18:25:47.108Z,8.08
2019-02-08T18:28:16.664Z,6.75
2019-02-08T18:30:45.665Z,7.95
2019-02-08T18:33:14.097Z,6.45
2019-02-08T18:35:42.551Z,5.72
2019-02-08T18:38:11.037Z,10.78
2019-02-08T18:40:39.459Z,12.15
2019-02-08T18:43:07.980Z,13.00
2019-02-08T18:45:37.376Z,15.08
2019-02-08T18:48:06.683Z,14.85
2019-02-08T18:50:49.591Z,13.60
2019-02-08T18:53:18.034Z,9.53
2019-02-08T18:55:46.477Z,10.15
2019-02-08T18:58:19.257Z,9.63
2019-02-08T19:00:47.459Z,11.43
2019-02-08T19:03:15.985Z,13.00
2019-02-08T19:05:44.499Z,14.00
2019-02-08T19:08:13.236Z,12.50
2019-02-08T19:10:41.734Z,12.00
2019-02-08T19:13:10.250Z,10.00
2019-02-08T19:15:38.750Z,7.45
2019-02-08T19:18:07.444Z,8.35
2019-02-08T19:20:36.021Z,7.03
2019-02-08T19:23:05.108Z,9.85
2019-02-08T19:25:35.778Z,10.15
2019-02-08T19:28:04.558Z,12.18
2019-02-08T19:30:36.055Z,13.05
2019-02-08T19:33:05.438Z,12.00
2019-02-08T19:35:34.007Z,12.45
2019-02-08T19:38:02.596Z,12.70
2019-02-08T19:40:37.074Z,14.30
2019-02-08T19:43:05.869Z,13.20
2019-02-08T19:45:34.645Z,11.75
2019-02-08T19:48:03.410Z,13.08
2019-02-08T19:50:37.047Z,11.95
2019-02-08T19:53:06.213Z,10.28
2019-02-08T19:55:34.815Z,10.40
2019-02-08T19:58:03.485Z,12.25
2019-02-08T20:00:34.199Z,12.13
2019-02-08T20:03:03.473Z,11.20
2019-02-08T20:05:31.930Z,11.75
2019-02-08T20:08:00.395Z,11.05
2019-02-08T20:10:37.592Z,11.70
2019-02-08T20:13:06.197Z,9.73
2019-02-08T20:15:34.692Z,10.53
2019-02-08T20:18:03.205Z,10.32
2019-02-08T20:20:31.728Z,10.65
2019-02-08T20:23:00.291Z,11.20
2019-02-08T20:25:30.804Z,10.05
2019-02-08T20:27:59.374Z,10.63
2019-02-08T20:30:29.513Z,9.95
2019-02-08T20:32:58.070Z,10.63
2019-02-08T20:35:28.300Z,10.40
2019-02-08T20:37:57.283Z,10.95
2019-02-08T20:40:28.340Z,10.98
2019-02-08T20:42:57.001Z,11.83
2019-02-08T20:45:27.494Z,11.40
2019-02-08T20:47:56.260Z,12.75
2019-02-08T20:50:25.609Z,12.85
2019-02-08T20:52:54.571Z,13.58
2019-02-08T20:55:24.143Z,13.18
2019-02-08T20:57:52.728Z,15.35
2019-02-08T21:00:25.515Z,17.62
2019-02-08T21:02:54.511Z,17.60
2019-02-08T21:05:23.387Z,20.37
2019-02-08T21:07:51.982Z,18.30
2019-02-08T21:10:20.670Z,17.17
2019-02-08T21:12:49.322Z,17.42
2019-02-08T21:15:20.827Z,18.17
2019-02-08T21:17:49.397Z,18.17
2019-02-08T21:20:18.977Z,22.52
2019-02-08T21:22:47.575Z,36.73
2019-02-08T21:25:30.166Z,40.23
2019-02-08T21:27:58.751Z,33.08
2019-02-08T21:30:27.627Z,33.23
2019-02-08T21:32:56.238Z,30.50
2019-02-08T21:35:24.832Z,24.50
2019-02-08T21:37:53.348Z,24.12
2019-02-08T21:40:29.153Z,24.07
2019-02-08T21:42:57.758Z,22.10
2019-02-08T21:45:30.784Z,23.22
2019-02-08T21:47:59.379Z,22.70
2019-02-08T21:50:28.355Z,23.77
2019-02-08T21:52:56.967Z,22.50
2019-02-08T21:55:27.655Z,20.00
2019-02-08T21:57:56.115Z,23.20
2019-02-08T22:00:27.457Z,20.82
2019-02-08T22:02:56.450Z,17.42
2019-02-08T22:05:36.510Z,16.57
2019-02-08T22:08:05.606Z,16.57
2019-02-08T22:10:34.184Z,18.05
2019-02-08T22:13:02.690Z,17.70
2019-02-08T22:15:33.571Z,19.15
2019-02-08T22:18:02.172Z,19.40
2019-02-08T22:20:30.894Z,19.12
2019-02-08T22:22:59.416Z,18.12
2019-02-08T22:25:30.473Z,16.35
2019-02-08T22:27:59.040Z,15.25
2019-02-08T22:30:28.128Z,15.38
2019-02-08T22:33:02.083Z,14.98
2019-02-08T22:35:30.711Z,14.95
2019-02-08T22:37:59.201Z,16.57
2019-02-08T22:40:27.720Z,15.72
2019-02-08T22:42:56.165Z,16.00
2019-02-08T22:45:29.359Z,15.23
2019-02-08T22:47:57.855Z,17.20
2019-02-08T22:50:26.795Z,15.08
2019-02-08T22:52:55.403Z,16.45
2019-02-08T22:55:26.944Z,18.98
2019-02-08T22:57:55.466Z,16.70
2019-02-08T23:00:37.688Z,16.85
2019-02-08T23:03:09.187Z,17.12
2019-02-08T23:05:45.016Z,17.10
2019-02-08T23:08:09.383Z,17.57
2019-02-08T23:10:38.440Z,17.98
2019-02-08T23:13:10.627Z,20.80
2019-02-08T23:15:40.517Z,17.67
2019-02-08T23:18:09.911Z,19.23
2019-02-08T23:20:38.582Z,18.12
2019-02-08T23:23:07.576Z,17.90
2019-02-08T23:25:35.999Z,17.95
2019-02-08T23:28:04.889Z,18.35
2019-02-08T23:30:33.955Z,17.55
2019-02-08T23:33:02.546Z,17.05
2019-02-08T23:35:31.149Z,17.12
2019-02-08T23:37:59.670Z,14.90
2019-02-08T23:40:28.167Z,14.15
2019-02-08T23:42:56.682Z,15.65
2019-02-08T23:45:25.255Z,14.05
2019-02-08T23:47:53.993Z,12.90
2019-02-08T23:50:24.426Z,15.03
2019-02-08T23:52:53.191Z,14.10
2019-02-08T23:55:22.873Z,14.75
2019-02-08T23:57:51.388Z,14.60
